sensor_id;sensor_type;location;lat;lon;timestamp;P1;durP1;ratioP1;P2;durP2;ratioP2
4957;SDS011;2494;51.872;9.688;2023-12-20T00:01:44;3.30;;;3.00;;
4957;SDS011;2494;51.872;9.688;2023-12-20T00:04:31;3.10;;;2.83;;
4957;SDS011;2494;51.872;9.688;2023-12-20T00:07:16;3.83;;;3.30;;
4957;SDS011;2494;51.872;9.688;2023-12-20T00:10:01;3.03;;;2.83;;
4957;SDS011;2494;51.872;9.688;2023-12-20T00:12:47;3.70;;;3.40;;
4957;SDS011;2494;51.872;9.688;2023-12-20T00:15:36;3.53;;;3.23;;
4957;SDS011;2494;51.872;9.688;2023-12-20T00:18:21;3.70;;;3.40;;
4957;SDS011;2494;51.872;9.688;2023-12-20T00:21:08;2.90;;;2.63;;
4957;SDS011;2494;51.872;9.688;2023-12-20T00:23:53;3.10;;;2.90;;
4957;SDS011;2494;51.872;9.688;2023-12-20T00:26:38;3.47;;;3.17;;
4957;SDS011;2494;51.872;9.688;2023-12-20T00:29:23;3.83;;;3.60;;
4957;SDS011;2494;51.872;9.688;2023-12-20T00:32:08;4.37;;;3.97;;
4957;SDS011;2494;51.872;9.688;2023-12-20T00:34:53;8.23;;;4.60;;
4957;SDS011;2494;51.872;9.688;2023-12-20T00:37:40;5.03;;;4.53;;
4957;SDS011;2494;51.872;9.688;2023-12-20T00:40:25;7.70;;;5.03;;
4957;SDS011;2494;51.872;9.688;2023-12-20T00:43:11;6.53;;;5.47;;
4957;SDS011;2494;51.872;9.688;2023-12-20T00:45:57;5.83;;;5.23;;
4957;SDS011;2494;51.872;9.688;2023-12-20T00:48:43;5.30;;;4.80;;
4957;SDS011;2494;51.872;9.688;2023-12-20T00:51:29;5.43;;;4.80;;
4957;SDS011;2494;51.872;9.688;2023-12-20T00:54:18;7.17;;;4.87;;
4957;SDS011;2494;51.872;9.688;2023-12-20T00:57:04;6.87;;;5.50;;
4957;SDS011;2494;51.872;9.688;2023-12-20T00:59:49;5.53;;;5.03;;
4957;SDS011;2494;51.872;9.688;2023-12-20T01:02:34;6.40;;;5.80;;
4957;SDS011;2494;51.872;9.688;2023-12-20T01:05:20;6.37;;;5.73;;
4957;SDS011;2494;51.872;9.688;2023-12-20T01:08:07;6.57;;;5.63;;
4957;SDS011;2494;51.872;9.688;2023-12-20T01:10:53;6.93;;;5.13;;
4957;SDS011;2494;51.872;9.688;2023-12-20T01:13:38;6.60;;;5.37;;
4957;SDS011;2494;51.872;9.688;2023-12-20T01:16:23;8.47;;;5.70;;
4957;SDS011;2494;51.872;9.688;2023-12-20T01:19:08;8.43;;;4.67;;
4957;SDS011;2494;51.872;9.688;2023-12-20T01:21:54;6.60;;;5.43;;
4957;SDS011;2494;51.872;9.688;2023-12-20T01:24:39;6.50;;;5.00;;
4957;SDS011;2494;51.872;9.688;2023-12-20T01:27:26;4.93;;;4.43;;
4957;SDS011;2494;51.872;9.688;2023-12-20T01:30:11;6.20;;;4.30;;
4957;SDS011;2494;51.872;9.688;2023-12-20T01:32:56;6.40;;;4.43;;
4957;SDS011;2494;51.872;9.688;2023-12-20T01:35:41;6.40;;;4.50;;
4957;SDS011;2494;51.872;9.688;2023-12-20T01:38:26;10.83;;;4.77;;
4957;SDS011;2494;51.872;9.688;2023-12-20T01:41:12;4.60;;;3.40;;
4957;SDS011;2494;51.872;9.688;2023-12-20T01:43:58;6.13;;;3.67;;
4957;SDS011;2494;51.872;9.688;2023-12-20T01:46:44;7.23;;;3.40;;
4957;SDS011;2494;51.872;9.688;2023-12-20T01:49:30;11.83;;;3.53;;
4957;SDS011;2494;51.872;9.688;2023-12-20T01:52:16;6.30;;;3.20;;
4957;SDS011;2494;51.872;9.688;2023-12-20T01:55:01;5.83;;;3.03;;
4957;SDS011;2494;51.872;9.688;2023-12-20T01:57:47;10.93;;;4.27;;
4957;SDS011;2494;51.872;9.688;2023-12-20T02:00:34;6.83;;;3.63;;
4957;SDS011;2494;51.872;9.688;2023-12-20T02:03:21;7.00;;;3.30;;
4957;SDS011;2494;51.872;9.688;2023-12-20T02:06:06;4.00;;;3.63;;
4957;SDS011;2494;51.872;9.688;2023-12-20T02:08:52;4.50;;;3.00;;
4957;SDS011;2494;51.872;9.688;2023-12-20T02:11:37;7.53;;;3.57;;
4957;SDS011;2494;51.872;9.688;2023-12-20T02:14:23;6.37;;;2.93;;
4957;SDS011;2494;51.872;9.688;2023-12-20T02:17:09;8.30;;;2.83;;
4957;SDS011;2494;51.872;9.688;2023-12-20T02:19:54;5.60;;;2.90;;
4957;SDS011;2494;51.872;9.688;2023-12-20T02:22:41;4.93;;;2.93;;
4957;SDS011;2494;51.872;9.688;2023-12-20T02:25:26;6.00;;;3.00;;
4957;SDS011;2494;51.872;9.688;2023-12-20T02:28:11;7.03;;;3.50;;
4957;SDS011;2494;51.872;9.688;2023-12-20T02:30:56;5.63;;;3.60;;
4957;SDS011;2494;51.872;9.688;2023-12-20T02:33:41;6.77;;;2.87;;
4957;SDS011;2494;51.872;9.688;2023-12-20T02:36:27;2.87;;;2.20;;
4957;SDS011;2494;51.872;9.688;2023-12-20T02:39:14;6.00;;;1.80;;
4957;SDS011;2494;51.872;9.688;2023-12-20T02:41:59;1.90;;;1.70;;
4957;SDS011;2494;51.872;9.688;2023-12-20T02:44:44;3.70;;;1.53;;
4957;SDS011;2494;51.872;9.688;2023-12-20T02:47:29;4.10;;;1.97;;
4957;SDS011;2494;51.872;9.688;2023-12-20T02:50:15;3.50;;;2.27;;
4957;SDS011;2494;51.872;9.688;2023-12-20T02:53:00;5.07;;;1.87;;
4957;SDS011;2494;51.872;9.688;2023-12-20T02:55:46;4.77;;;2.20;;
4957;SDS011;2494;51.872;9.688;2023-12-20T02:58:31;3.70;;;2.07;;
4957;SDS011;2494;51.872;9.688;2023-12-20T03:01:17;7.20;;;2.67;;
4957;SDS011;2494;51.872;9.688;2023-12-20T03:04:02;5.30;;;2.90;;
4957;SDS011;2494;51.872;9.688;2023-12-20T03:06:47;4.90;;;2.37;;
4957;SDS011;2494;51.872;9.688;2023-12-20T03:09:33;3.40;;;2.50;;
4957;SDS011;2494;51.872;9.688;2023-12-20T03:12:19;7.13;;;2.67;;
4957;SDS011;2494;51.872;9.688;2023-12-20T03:15:04;4.80;;;2.90;;
4957;SDS011;2494;51.872;9.688;2023-12-20T03:17:50;2.93;;;2.70;;
4957;SDS011;2494;51.872;9.688;2023-12-20T03:20:35;4.03;;;3.07;;
4957;SDS011;2494;51.872;9.688;2023-12-20T03:23:20;7.93;;;2.77;;
4957;SDS011;2494;51.872;9.688;2023-12-20T03:26:06;6.67;;;2.87;;
4957;SDS011;2494;51.872;9.688;2023-12-20T03:28:53;8.50;;;3.50;;
4957;SDS011;2494;51.872;9.688;2023-12-20T03:31:38;3.27;;;2.37;;
4957;SDS011;2494;51.872;9.688;2023-12-20T03:34:23;3.50;;;2.33;;
4957;SDS011;2494;51.872;9.688;2023-12-20T03:37:09;2.80;;;2.47;;
4957;SDS011;2494;51.872;9.688;2023-12-20T03:39:54;2.80;;;1.90;;
4957;SDS011;2494;51.872;9.688;2023-12-20T03:42:40;6.77;;;2.00;;
4957;SDS011;2494;51.872;9.688;2023-12-20T03:45:26;2.60;;;1.80;;
4957;SDS011;2494;51.872;9.688;2023-12-20T03:48:11;7.80;;;2.47;;
4957;SDS011;2494;51.872;9.688;2023-12-20T03:50:57;2.73;;;1.67;;
4957;SDS011;2494;51.872;9.688;2023-12-20T03:53:42;2.40;;;1.67;;
4957;SDS011;2494;51.872;9.688;2023-12-20T03:56:27;3.07;;;2.33;;
4957;SDS011;2494;51.872;9.688;2023-12-20T03:59:12;3.60;;;2.07;;
4957;SDS011;2494;51.872;9.688;2023-12-20T04:01:59;5.17;;;1.63;;
4957;SDS011;2494;51.872;9.688;2023-12-20T04:04:46;4.70;;;1.97;;
4957;SDS011;2494;51.872;9.688;2023-12-20T04:07:31;5.80;;;1.47;;
4957;SDS011;2494;51.872;9.688;2023-12-20T04:10:17;5.43;;;2.20;;
4957;SDS011;2494;51.872;9.688;2023-12-20T04:13:02;7.30;;;2.03;;
4957;SDS011;2494;51.872;9.688;2023-12-20T04:15:47;5.70;;;2.03;;
4957;SDS011;2494;51.872;9.688;2023-12-20T04:18:36;8.53;;;2.50;;
4957;SDS011;2494;51.872;9.688;2023-12-20T04:21:21;4.00;;;2.77;;
4957;SDS011;2494;51.872;9.688;2023-12-20T04:24:06;8.00;;;2.00;;
4957;SDS011;2494;51.872;9.688;2023-12-20T04:26:52;4.00;;;1.73;;
4957;SDS011;2494;51.872;9.688;2023-12-20T04:29:37;5.33;;;2.13;;
4957;SDS011;2494;51.872;9.688;2023-12-20T04:32:22;3.60;;;1.70;;
4957;SDS011;2494;51.872;9.688;2023-12-20T04:35:09;12.30;;;3.07;;
4957;SDS011;2494;51.872;9.688;2023-12-20T04:37:53;4.60;;;2.90;;
4957;SDS011;2494;51.872;9.688;2023-12-20T04:40:39;4.43;;;2.20;;
4957;SDS011;2494;51.872;9.688;2023-12-20T04:43:24;12.20;;;3.30;;
4957;SDS011;2494;51.872;9.688;2023-12-20T04:46:12;11.23;;;2.80;;
4957;SDS011;2494;51.872;9.688;2023-12-20T04:48:57;9.53;;;3.63;;
4957;SDS011;2494;51.872;9.688;2023-12-20T04:51:44;3.97;;;2.30;;
4957;SDS011;2494;51.872;9.688;2023-12-20T04:54:29;22.03;;;4.83;;
4957;SDS011;2494;51.872;9.688;2023-12-20T04:57:14;8.20;;;3.70;;
4957;SDS011;2494;51.872;9.688;2023-12-20T04:59:59;8.17;;;3.40;;
4957;SDS011;2494;51.872;9.688;2023-12-20T05:02:45;10.00;;;4.90;;
4957;SDS011;2494;51.872;9.688;2023-12-20T05:05:30;7.90;;;4.20;;
4957;SDS011;2494;51.872;9.688;2023-12-20T05:08:17;13.73;;;4.13;;
4957;SDS011;2494;51.872;9.688;2023-12-20T05:11:02;6.30;;;4.30;;
4957;SDS011;2494;51.872;9.688;2023-12-20T05:13:48;13.40;;;5.40;;
4957;SDS011;2494;51.872;9.688;2023-12-20T05:16:33;11.50;;;5.63;;
4957;SDS011;2494;51.872;9.688;2023-12-20T05:19:19;7.33;;;4.20;;
4957;SDS011;2494;51.872;9.688;2023-12-20T05:22:04;7.60;;;4.37;;
4957;SDS011;2494;51.872;9.688;2023-12-20T05:24:51;5.97;;;4.17;;
4957;SDS011;2494;51.872;9.688;2023-12-20T05:27:36;10.10;;;3.93;;
4957;SDS011;2494;51.872;9.688;2023-12-20T05:30:22;8.20;;;3.90;;
4957;SDS011;2494;51.872;9.688;2023-12-20T05:33:07;10.40;;;4.37;;
4957;SDS011;2494;51.872;9.688;2023-12-20T05:35:53;12.30;;;4.27;;
4957;SDS011;2494;51.872;9.688;2023-12-20T05:38:38;13.73;;;4.47;;
4957;SDS011;2494;51.872;9.688;2023-12-20T05:41:24;6.83;;;3.47;;
4957;SDS011;2494;51.872;9.688;2023-12-20T05:44:09;13.63;;;4.17;;
4957;SDS011;2494;51.872;9.688;2023-12-20T05:46:54;5.37;;;4.67;;
4957;SDS011;2494;51.872;9.688;2023-12-20T05:49:40;22.23;;;5.30;;
4957;SDS011;2494;51.872;9.688;2023-12-20T05:52:25;7.23;;;3.90;;
4957;SDS011;2494;51.872;9.688;2023-12-20T05:55:10;6.10;;;3.93;;
4957;SDS011;2494;51.872;9.688;2023-12-20T05:57:57;13.17;;;4.60;;
4957;SDS011;2494;51.872;9.688;2023-12-20T06:00:42;7.00;;;3.57;;
4957;SDS011;2494;51.872;9.688;2023-12-20T06:03:27;5.90;;;3.77;;
4957;SDS011;2494;51.872;9.688;2023-12-20T06:06:12;10.53;;;4.37;;
4957;SDS011;2494;51.872;9.688;2023-12-20T06:08:58;14.13;;;4.73;;
4957;SDS011;2494;51.872;9.688;2023-12-20T06:11:43;11.27;;;4.40;;
4957;SDS011;2494;51.872;9.688;2023-12-20T06:14:29;12.27;;;5.30;;
4957;SDS011;2494;51.872;9.688;2023-12-20T06:17:15;18.60;;;4.80;;
4957;SDS011;2494;51.872;9.688;2023-12-20T06:20:00;9.23;;;4.60;;
4957;SDS011;2494;51.872;9.688;2023-12-20T06:22:46;11.33;;;5.30;;
4957;SDS011;2494;51.872;9.688;2023-12-20T06:25:31;10.07;;;4.93;;
4957;SDS011;2494;51.872;9.688;2023-12-20T06:28:16;7.87;;;4.60;;
4957;SDS011;2494;51.872;9.688;2023-12-20T06:31:03;14.53;;;4.10;;
4957;SDS011;2494;51.872;9.688;2023-12-20T06:33:48;16.03;;;4.43;;
4957;SDS011;2494;51.872;9.688;2023-12-20T06:36:41;6.63;;;4.00;;
4957;SDS011;2494;51.872;9.688;2023-12-20T06:39:26;10.70;;;4.20;;
4957;SDS011;2494;51.872;9.688;2023-12-20T06:42:11;11.80;;;4.73;;
4957;SDS011;2494;51.872;9.688;2023-12-20T06:44:57;8.93;;;4.73;;
4957;SDS011;2494;51.872;9.688;2023-12-20T06:47:44;7.80;;;4.97;;
4957;SDS011;2494;51.872;9.688;2023-12-20T06:50:29;15.70;;;3.80;;
4957;SDS011;2494;51.872;9.688;2023-12-20T06:53:14;7.73;;;4.67;;
4957;SDS011;2494;51.872;9.688;2023-12-20T06:56:00;10.00;;;4.77;;
4957;SDS011;2494;51.872;9.688;2023-12-20T06:58:46;8.77;;;4.20;;
4957;SDS011;2494;51.872;9.688;2023-12-20T07:01:32;10.60;;;4.63;;
4957;SDS011;2494;51.872;9.688;2023-12-20T07:04:18;10.63;;;5.17;;
4957;SDS011;2494;51.872;9.688;2023-12-20T07:07:05;12.50;;;4.53;;
4957;SDS011;2494;51.872;9.688;2023-12-20T07:09:50;6.53;;;3.87;;
4957;SDS011;2494;51.872;9.688;2023-12-20T07:12:36;14.53;;;4.80;;
4957;SDS011;2494;51.872;9.688;2023-12-20T07:15:21;8.67;;;4.87;;
4957;SDS011;2494;51.872;9.688;2023-12-20T07:18:06;6.10;;;5.10;;
4957;SDS011;2494;51.872;9.688;2023-12-20T07:20:53;10.10;;;4.80;;
4957;SDS011;2494;51.872;9.688;2023-12-20T07:23:39;17.43;;;5.47;;
4957;SDS011;2494;51.872;9.688;2023-12-20T07:26:24;10.40;;;5.47;;
4957;SDS011;2494;51.872;9.688;2023-12-20T07:29:09;13.10;;;5.00;;
4957;SDS011;2494;51.872;9.688;2023-12-20T07:31:55;6.30;;;4.40;;
4957;SDS011;2494;51.872;9.688;2023-12-20T07:34:40;6.53;;;4.40;;
4957;SDS011;2494;51.872;9.688;2023-12-20T07:37:27;10.60;;;5.10;;
4957;SDS011;2494;51.872;9.688;2023-12-20T07:40:12;12.67;;;4.43;;
4957;SDS011;2494;51.872;9.688;2023-12-20T07:42:57;16.97;;;4.77;;
4957;SDS011;2494;51.872;9.688;2023-12-20T07:45:43;8.07;;;4.43;;
4957;SDS011;2494;51.872;9.688;2023-12-20T07:48:28;14.53;;;4.90;;
4957;SDS011;2494;51.872;9.688;2023-12-20T07:51:14;12.83;;;5.40;;
4957;SDS011;2494;51.872;9.688;2023-12-20T07:54:01;10.93;;;4.43;;
4957;SDS011;2494;51.872;9.688;2023-12-20T07:56:47;14.60;;;4.70;;
4957;SDS011;2494;51.872;9.688;2023-12-20T07:59:33;12.87;;;4.63;;
4957;SDS011;2494;51.872;9.688;2023-12-20T08:02:19;6.10;;;5.13;;
4957;SDS011;2494;51.872;9.688;2023-12-20T08:05:04;13.20;;;6.47;;
4957;SDS011;2494;51.872;9.688;2023-12-20T08:07:50;14.73;;;6.33;;
4957;SDS011;2494;51.872;9.688;2023-12-20T08:10:37;6.17;;;5.33;;
4957;SDS011;2494;51.872;9.688;2023-12-20T08:13:22;7.97;;;6.03;;
4957;SDS011;2494;51.872;9.688;2023-12-20T08:16:09;9.20;;;5.80;;
4957;SDS011;2494;51.872;9.688;2023-12-20T08:18:57;9.33;;;5.90;;
4957;SDS011;2494;51.872;9.688;2023-12-20T08:21:42;12.43;;;7.80;;
4957;SDS011;2494;51.872;9.688;2023-12-20T08:24:27;15.60;;;6.90;;
4957;SDS011;2494;51.872;9.688;2023-12-20T08:27:14;14.90;;;6.60;;
4957;SDS011;2494;51.872;9.688;2023-12-20T08:29:59;7.73;;;5.43;;
4957;SDS011;2494;51.872;9.688;2023-12-20T08:32:44;11.70;;;7.60;;
4957;SDS011;2494;51.872;9.688;2023-12-20T08:35:30;11.80;;;6.13;;
4957;SDS011;2494;51.872;9.688;2023-12-20T08:38:15;13.10;;;7.10;;
4957;SDS011;2494;51.872;9.688;2023-12-20T08:41:01;17.30;;;7.30;;
4957;SDS011;2494;51.872;9.688;2023-12-20T08:43:50;16.30;;;11.20;;
4957;SDS011;2494;51.872;9.688;2023-12-20T08:46:35;16.23;;;10.23;;
4957;SDS011;2494;51.872;9.688;2023-12-20T08:49:21;14.93;;;7.27;;
4957;SDS011;2494;51.872;9.688;2023-12-20T08:52:06;18.03;;;8.97;;
4957;SDS011;2494;51.872;9.688;2023-12-20T08:54:51;10.47;;;7.17;;
4957;SDS011;2494;51.872;9.688;2023-12-20T08:57:37;13.80;;;6.23;;
4957;SDS011;2494;51.872;9.688;2023-12-20T09:00:24;15.77;;;7.27;;
4957;SDS011;2494;51.872;9.688;2023-12-20T09:03:11;16.77;;;6.70;;
4957;SDS011;2494;51.872;9.688;2023-12-20T09:05:56;47.53;;;24.17;;
4957;SDS011;2494;51.872;9.688;2023-12-20T09:08:42;22.93;;;9.77;;
4957;SDS011;2494;51.872;9.688;2023-12-20T09:11:27;10.10;;;6.20;;
4957;SDS011;2494;51.872;9.688;2023-12-20T09:14:13;15.27;;;7.50;;
4957;SDS011;2494;51.872;9.688;2023-12-20T09:16:59;13.70;;;7.67;;
4957;SDS011;2494;51.872;9.688;2023-12-20T09:19:45;10.63;;;5.87;;
4957;SDS011;2494;51.872;9.688;2023-12-20T09:22:30;4.80;;;4.37;;
4957;SDS011;2494;51.872;9.688;2023-12-20T09:25:15;16.00;;;7.03;;
4957;SDS011;2494;51.872;9.688;2023-12-20T09:28:01;9.53;;;5.10;;
4957;SDS011;2494;51.872;9.688;2023-12-20T09:30:46;13.30;;;5.63;;
4957;SDS011;2494;51.872;9.688;2023-12-20T09:33:33;7.70;;;5.10;;
4957;SDS011;2494;51.872;9.688;2023-12-20T09:36:18;9.93;;;5.13;;
4957;SDS011;2494;51.872;9.688;2023-12-20T09:39:04;6.33;;;4.50;;
4957;SDS011;2494;51.872;9.688;2023-12-20T09:41:51;15.27;;;5.27;;
4957;SDS011;2494;51.872;9.688;2023-12-20T09:44:41;12.90;;;4.50;;
4957;SDS011;2494;51.872;9.688;2023-12-20T09:47:28;11.97;;;4.83;;
4957;SDS011;2494;51.872;9.688;2023-12-20T09:50:14;7.20;;;5.27;;
4957;SDS011;2494;51.872;9.688;2023-12-20T09:53:00;8.17;;;4.37;;
4957;SDS011;2494;51.872;9.688;2023-12-20T09:55:46;12.47;;;5.43;;
4957;SDS011;2494;51.872;9.688;2023-12-20T09:58:31;15.47;;;6.73;;
4957;SDS011;2494;51.872;9.688;2023-12-20T10:01:17;9.00;;;4.77;;
4957;SDS011;2494;51.872;9.688;2023-12-20T10:04:04;8.30;;;5.37;;
4957;SDS011;2494;51.872;9.688;2023-12-20T10:06:51;11.73;;;4.40;;
4957;SDS011;2494;51.872;9.688;2023-12-20T10:09:37;7.63;;;4.57;;
4957;SDS011;2494;51.872;9.688;2023-12-20T10:12:23;11.50;;;5.10;;
4957;SDS011;2494;51.872;9.688;2023-12-20T10:15:08;11.60;;;5.67;;
4957;SDS011;2494;51.872;9.688;2023-12-20T10:17:55;14.23;;;4.60;;
4957;SDS011;2494;51.872;9.688;2023-12-20T10:20:41;6.23;;;5.47;;
4957;SDS011;2494;51.872;9.688;2023-12-20T10:23:28;14.67;;;6.03;;
4957;SDS011;2494;51.872;9.688;2023-12-20T10:26:18;7.90;;;5.30;;
4957;SDS011;2494;51.872;9.688;2023-12-20T10:29:04;12.73;;;4.50;;
4957;SDS011;2494;51.872;9.688;2023-12-20T10:31:49;9.10;;;6.33;;
4957;SDS011;2494;51.872;9.688;2023-12-20T10:34:35;5.83;;;5.00;;
4957;SDS011;2494;51.872;9.688;2023-12-20T10:37:20;10.20;;;5.20;;
4957;SDS011;2494;51.872;9.688;2023-12-20T10:40:07;11.67;;;6.23;;
4957;SDS011;2494;51.872;9.688;2023-12-20T10:42:53;8.10;;;5.00;;
4957;SDS011;2494;51.872;9.688;2023-12-20T10:45:38;7.33;;;5.17;;
4957;SDS011;2494;51.872;9.688;2023-12-20T10:48:24;6.63;;;5.17;;
4957;SDS011;2494;51.872;9.688;2023-12-20T10:51:13;11.30;;;4.70;;
4957;SDS011;2494;51.872;9.688;2023-12-20T10:53:59;9.83;;;5.53;;
4957;SDS011;2494;51.872;9.688;2023-12-20T10:56:46;15.87;;;6.30;;
4957;SDS011;2494;51.872;9.688;2023-12-20T10:59:32;12.93;;;5.00;;
4957;SDS011;2494;51.872;9.688;2023-12-20T11:02:18;6.30;;;5.37;;
4957;SDS011;2494;51.872;9.688;2023-12-20T11:05:05;15.27;;;4.67;;
4957;SDS011;2494;51.872;9.688;2023-12-20T11:07:54;9.50;;;5.90;;
4957;SDS011;2494;51.872;9.688;2023-12-20T11:10:42;11.70;;;5.67;;
4957;SDS011;2494;51.872;9.688;2023-12-20T11:13:32;9.40;;;6.47;;
4957;SDS011;2494;51.872;9.688;2023-12-20T11:16:18;10.13;;;6.00;;
4957;SDS011;2494;51.872;9.688;2023-12-20T11:19:04;15.07;;;6.77;;
4957;SDS011;2494;51.872;9.688;2023-12-20T11:21:50;10.20;;;7.03;;
4957;SDS011;2494;51.872;9.688;2023-12-20T11:24:36;9.57;;;5.90;;
4957;SDS011;2494;51.872;9.688;2023-12-20T11:27:28;7.47;;;6.37;;
4957;SDS011;2494;51.872;9.688;2023-12-20T11:30:17;16.10;;;7.40;;
4957;SDS011;2494;51.872;9.688;2023-12-20T11:33:02;11.07;;;6.73;;
4957;SDS011;2494;51.872;9.688;2023-12-20T11:35:47;10.13;;;6.40;;
4957;SDS011;2494;51.872;9.688;2023-12-20T11:38:36;9.00;;;6.90;;
4957;SDS011;2494;51.872;9.688;2023-12-20T11:41:22;8.43;;;6.47;;
4957;SDS011;2494;51.872;9.688;2023-12-20T11:44:07;9.67;;;6.50;;
4957;SDS011;2494;51.872;9.688;2023-12-20T11:46:56;9.20;;;6.13;;
4957;SDS011;2494;51.872;9.688;2023-12-20T11:49:41;9.77;;;6.27;;
4957;SDS011;2494;51.872;9.688;2023-12-20T11:52:27;8.40;;;6.37;;
4957;SDS011;2494;51.872;9.688;2023-12-20T11:55:12;8.03;;;5.40;;
4957;SDS011;2494;51.872;9.688;2023-12-20T11:57:59;6.73;;;4.47;;
4957;SDS011;2494;51.872;9.688;2023-12-20T12:00:44;11.33;;;5.50;;
4957;SDS011;2494;51.872;9.688;2023-12-20T12:03:31;7.13;;;5.80;;
4957;SDS011;2494;51.872;9.688;2023-12-20T12:06:16;8.97;;;5.37;;
4957;SDS011;2494;51.872;9.688;2023-12-20T12:09:02;10.40;;;6.00;;
4957;SDS011;2494;51.872;9.688;2023-12-20T12:11:48;7.47;;;5.63;;
4957;SDS011;2494;51.872;9.688;2023-12-20T12:14:33;8.20;;;5.40;;
4957;SDS011;2494;51.872;9.688;2023-12-20T12:17:20;7.13;;;5.17;;
4957;SDS011;2494;51.872;9.688;2023-12-20T12:20:08;7.40;;;6.80;;
4957;SDS011;2494;51.872;9.688;2023-12-20T12:22:57;9.00;;;6.30;;
4957;SDS011;2494;51.872;9.688;2023-12-20T12:25:42;10.17;;;6.30;;
4957;SDS011;2494;51.872;9.688;2023-12-20T12:28:29;11.30;;;7.70;;
4957;SDS011;2494;51.872;9.688;2023-12-20T12:31:16;12.40;;;7.30;;
4957;SDS011;2494;51.872;9.688;2023-12-20T12:34:01;7.70;;;6.43;;
4957;SDS011;2494;51.872;9.688;2023-12-20T12:36:49;10.50;;;5.63;;
4957;SDS011;2494;51.872;9.688;2023-12-20T12:39:34;7.50;;;5.87;;
4957;SDS011;2494;51.872;9.688;2023-12-20T12:42:19;8.00;;;5.87;;
4957;SDS011;2494;51.872;9.688;2023-12-20T12:45:09;9.20;;;5.57;;
4957;SDS011;2494;51.872;9.688;2023-12-20T12:47:55;7.33;;;5.33;;
4957;SDS011;2494;51.872;9.688;2023-12-20T12:50:40;7.10;;;5.57;;
4957;SDS011;2494;51.872;9.688;2023-12-20T12:53:27;9.00;;;6.27;;
4957;SDS011;2494;51.872;9.688;2023-12-20T12:56:12;7.70;;;5.63;;
4957;SDS011;2494;51.872;9.688;2023-12-20T12:58:58;8.77;;;5.20;;
4957;SDS011;2494;51.872;9.688;2023-12-20T13:01:44;10.40;;;6.50;;
4957;SDS011;2494;51.872;9.688;2023-12-20T13:04:29;9.63;;;6.50;;
4957;SDS011;2494;51.872;9.688;2023-12-20T13:07:14;11.00;;;5.10;;
4957;SDS011;2494;51.872;9.688;2023-12-20T13:10:01;11.10;;;5.77;;
4957;SDS011;2494;51.872;9.688;2023-12-20T13:12:47;6.00;;;5.43;;
4957;SDS011;2494;51.872;9.688;2023-12-20T13:15:32;8.20;;;4.67;;
4957;SDS011;2494;51.872;9.688;2023-12-20T13:18:17;7.83;;;4.90;;
4957;SDS011;2494;51.872;9.688;2023-12-20T13:21:03;5.90;;;4.80;;
4957;SDS011;2494;51.872;9.688;2023-12-20T13:23:48;13.33;;;4.00;;
4957;SDS011;2494;51.872;9.688;2023-12-20T13:26:35;9.03;;;5.37;;
4957;SDS011;2494;51.872;9.688;2023-12-20T13:29:20;7.47;;;4.73;;
4957;SDS011;2494;51.872;9.688;2023-12-20T13:32:06;4.53;;;4.03;;
4957;SDS011;2494;51.872;9.688;2023-12-20T13:34:51;6.33;;;4.40;;
4957;SDS011;2494;51.872;9.688;2023-12-20T13:37:37;8.10;;;4.97;;
4957;SDS011;2494;51.872;9.688;2023-12-20T13:40:23;8.27;;;4.63;;
4957;SDS011;2494;51.872;9.688;2023-12-20T13:43:10;7.03;;;4.30;;
4957;SDS011;2494;51.872;9.688;2023-12-20T13:45:56;13.13;;;4.13;;
4957;SDS011;2494;51.872;9.688;2023-12-20T13:48:41;7.70;;;3.90;;
4957;SDS011;2494;51.872;9.688;2023-12-20T13:51:27;10.70;;;4.60;;
4957;SDS011;2494;51.872;9.688;2023-12-20T13:54:12;6.43;;;4.60;;
4957;SDS011;2494;51.872;9.688;2023-12-20T13:56:57;6.40;;;4.00;;
4957;SDS011;2494;51.872;9.688;2023-12-20T13:59:44;6.07;;;4.40;;
4957;SDS011;2494;51.872;9.688;2023-12-20T14:02:29;9.50;;;5.80;;
4957;SDS011;2494;51.872;9.688;2023-12-20T14:05:14;11.33;;;3.87;;
4957;SDS011;2494;51.872;9.688;2023-12-20T14:08:01;6.93;;;4.87;;
4957;SDS011;2494;51.872;9.688;2023-12-20T14:10:46;4.70;;;3.57;;
4957;SDS011;2494;51.872;9.688;2023-12-20T14:13:31;5.60;;;2.33;;
4957;SDS011;2494;51.872;9.688;2023-12-20T14:16:18;4.03;;;1.20;;
4957;SDS011;2494;51.872;9.688;2023-12-20T14:19:04;2.47;;;1.47;;
4957;SDS011;2494;51.872;9.688;2023-12-20T14:21:51;1.07;;;0.97;;
4957;SDS011;2494;51.872;9.688;2023-12-20T14:24:36;4.73;;;2.20;;
4957;SDS011;2494;51.872;9.688;2023-12-20T14:27:22;1.20;;;0.80;;
4957;SDS011;2494;51.872;9.688;2023-12-20T14:30:08;1.63;;;0.80;;
4957;SDS011;2494;51.872;9.688;2023-12-20T14:32:55;2.80;;;1.30;;
4957;SDS011;2494;51.872;9.688;2023-12-20T14:35:41;2.40;;;1.00;;
4957;SDS011;2494;51.872;9.688;2023-12-20T14:38:28;1.67;;;1.00;;
4957;SDS011;2494;51.872;9.688;2023-12-20T14:41:13;1.77;;;1.20;;
4957;SDS011;2494;51.872;9.688;2023-12-20T14:43:58;1.30;;;0.93;;
4957;SDS011;2494;51.872;9.688;2023-12-20T14:46:44;2.03;;;0.90;;
4957;SDS011;2494;51.872;9.688;2023-12-20T14:49:31;1.37;;;0.70;;
4957;SDS011;2494;51.872;9.688;2023-12-20T14:52:17;1.30;;;1.00;;
4957;SDS011;2494;51.872;9.688;2023-12-20T14:55:02;1.43;;;0.97;;
4957;SDS011;2494;51.872;9.688;2023-12-20T14:57:48;0.73;;;0.67;;
4957;SDS011;2494;51.872;9.688;2023-12-20T15:00:34;6.10;;;1.00;;
4957;SDS011;2494;51.872;9.688;2023-12-20T15:03:19;3.90;;;1.13;;
4957;SDS011;2494;51.872;9.688;2023-12-20T15:06:06;5.60;;;1.10;;
4957;SDS011;2494;51.872;9.688;2023-12-20T15:08:55;1.20;;;0.77;;
4957;SDS011;2494;51.872;9.688;2023-12-20T15:11:40;2.63;;;1.20;;
4957;SDS011;2494;51.872;9.688;2023-12-20T15:14:25;5.17;;;2.03;;
4957;SDS011;2494;51.872;9.688;2023-12-20T15:17:12;3.60;;;0.90;;
4957;SDS011;2494;51.872;9.688;2023-12-20T15:19:58;1.70;;;1.10;;
4957;SDS011;2494;51.872;9.688;2023-12-20T15:22:45;1.50;;;0.90;;
4957;SDS011;2494;51.872;9.688;2023-12-20T15:25:30;1.30;;;1.00;;
4957;SDS011;2494;51.872;9.688;2023-12-20T15:28:15;3.33;;;1.63;;
4957;SDS011;2494;51.872;9.688;2023-12-20T15:31:00;7.10;;;2.33;;
4957;SDS011;2494;51.872;9.688;2023-12-20T15:33:45;4.23;;;1.90;;
4957;SDS011;2494;51.872;9.688;2023-12-20T15:36:30;5.20;;;3.13;;
4957;SDS011;2494;51.872;9.688;2023-12-20T15:39:16;13.53;;;3.40;;
4957;SDS011;2494;51.872;9.688;2023-12-20T15:42:02;6.00;;;1.43;;
4957;SDS011;2494;51.872;9.688;2023-12-20T15:44:47;5.60;;;3.03;;
4957;SDS011;2494;51.872;9.688;2023-12-20T15:47:32;21.07;;;8.93;;
4957;SDS011;2494;51.872;9.688;2023-12-20T15:50:18;4.43;;;2.40;;
4957;SDS011;2494;51.872;9.688;2023-12-20T15:53:04;4.60;;;2.63;;
4957;SDS011;2494;51.872;9.688;2023-12-20T15:55:50;6.40;;;1.37;;
4957;SDS011;2494;51.872;9.688;2023-12-20T15:58:35;2.03;;;1.40;;
4957;SDS011;2494;51.872;9.688;2023-12-20T16:01:21;1.53;;;1.07;;
4957;SDS011;2494;51.872;9.688;2023-12-20T16:04:06;3.33;;;1.17;;
4957;SDS011;2494;51.872;9.688;2023-12-20T16:06:51;1.63;;;1.30;;
4957;SDS011;2494;51.872;9.688;2023-12-20T16:09:37;1.77;;;1.20;;
4957;SDS011;2494;51.872;9.688;2023-12-20T16:12:23;1.23;;;1.03;;
4957;SDS011;2494;51.872;9.688;2023-12-20T16:15:09;4.87;;;3.80;;
4957;SDS011;2494;51.872;9.688;2023-12-20T16:17:54;2.90;;;1.40;;
4957;SDS011;2494;51.872;9.688;2023-12-20T16:20:39;1.53;;;1.43;;
4957;SDS011;2494;51.872;9.688;2023-12-20T16:23:25;1.40;;;1.27;;
4957;SDS011;2494;51.872;9.688;2023-12-20T16:26:11;1.03;;;0.93;;
4957;SDS011;2494;51.872;9.688;2023-12-20T16:28:59;1.80;;;1.10;;
4957;SDS011;2494;51.872;9.688;2023-12-20T16:31:44;2.40;;;1.60;;
4957;SDS011;2494;51.872;9.688;2023-12-20T16:34:29;2.43;;;1.87;;
4957;SDS011;2494;51.872;9.688;2023-12-20T16:37:14;1.90;;;1.50;;
4957;SDS011;2494;51.872;9.688;2023-12-20T16:40:00;3.07;;;2.77;;
4957;SDS011;2494;51.872;9.688;2023-12-20T16:42:45;2.00;;;1.90;;
4957;SDS011;2494;51.872;9.688;2023-12-20T16:45:32;4.10;;;2.20;;
4957;SDS011;2494;51.872;9.688;2023-12-20T16:48:17;4.23;;;2.60;;
4957;SDS011;2494;51.872;9.688;2023-12-20T16:51:03;4.43;;;2.50;;
4957;SDS011;2494;51.872;9.688;2023-12-20T16:53:48;2.10;;;1.87;;
4957;SDS011;2494;51.872;9.688;2023-12-20T16:56:33;2.53;;;2.33;;
4957;SDS011;2494;51.872;9.688;2023-12-20T16:59:19;3.53;;;2.60;;
4957;SDS011;2494;51.872;9.688;2023-12-20T17:02:05;3.07;;;1.33;;
4957;SDS011;2494;51.872;9.688;2023-12-20T17:04:50;5.70;;;2.50;;